sensor_id;sensor_type;location;lat;lon;timestamp;temperature;humidity
48860;DHT22;34679;51.436;-2.518;2023-09-19T00:00:20;13.00;99.90
48860;DHT22;34679;51.436;-2.518;2023-09-19T00:02:56;13.00;99.90
48860;DHT22;34679;51.436;-2.518;2023-09-19T00:05:25;13.00;99.90
48860;DHT22;34679;51.436;-2.518;2023-09-19T00:07:54;13.00;99.90
48860;DHT22;34679;51.436;-2.518;2023-09-19T00:10:30;13.00;99.90
48860;DHT22;34679;51.436;-2.518;2023-09-19T00:13:01;13.00;99.90
48860;DHT22;34679;51.436;-2.518;2023-09-19T00:15:35;13.00;99.90
48860;DHT22;34679;51.436;-2.518;2023-09-19T00:18:01;13.00;99.90
48860;DHT22;34679;51.436;-2.518;2023-09-19T00:20:27;13.00;99.90
48860;DHT22;34679;51.436;-2.518;2023-09-19T00:22:55;13.00;99.90
48860;DHT22;34679;51.436;-2.518;2023-09-19T00:25:21;13.00;99.90
48860;DHT22;34679;51.436;-2.518;2023-09-19T00:27:47;13.10;99.90
48860;DHT22;34679;51.436;-2.518;2023-09-19T00:30:15;13.10;99.90
48860;DHT22;34679;51.436;-2.518;2023-09-19T00:32:47;13.00;99.90
48860;DHT22;34679;51.436;-2.518;2023-09-19T00:35:15;13.10;99.90
48860;DHT22;34679;51.436;-2.518;2023-09-19T00:37:42;13.10;99.90
48860;DHT22;34679;51.436;-2.518;2023-09-19T00:40:08;13.10;99.90
48860;DHT22;34679;51.436;-2.518;2023-09-19T00:42:38;13.10;99.90
48860;DHT22;34679;51.436;-2.518;2023-09-19T00:45:05;13.10;99.90
48860;DHT22;34679;51.436;-2.518;2023-09-19T00:47:32;13.10;99.90
48860;DHT22;34679;51.436;-2.518;2023-09-19T00:49:58;13.10;99.90
48860;DHT22;34679;51.436;-2.518;2023-09-19T00:52:24;13.10;99.90
48860;DHT22;34679;51.436;-2.518;2023-09-19T00:54:50;13.10;99.90
48860;DHT22;34679;51.436;-2.518;2023-09-19T00:57:16;12.90;99.90
48860;DHT22;34679;51.436;-2.518;2023-09-19T00:59:43;12.80;99.90
48860;DHT22;34679;51.436;-2.518;2023-09-19T01:02:09;12.80;99.90
48860;DHT22;34679;51.436;-2.518;2023-09-19T01:04:36;12.70;99.90
48860;DHT22;34679;51.436;-2.518;2023-09-19T01:07:02;12.70;99.90
48860;DHT22;34679;51.436;-2.518;2023-09-19T01:09:29;12.60;99.90
48860;DHT22;34679;51.436;-2.518;2023-09-19T01:11:59;12.60;99.90
48860;DHT22;34679;51.436;-2.518;2023-09-19T01:20:00;12.70;99.90
48860;DHT22;34679;51.436;-2.518;2023-09-19T01:28:32;12.80;99.90
48860;DHT22;34679;51.436;-2.518;2023-09-19T01:31:04;12.80;99.90
48860;DHT22;34679;51.436;-2.518;2023-09-19T01:33:57;12.80;99.90
48860;DHT22;34679;51.436;-2.518;2023-09-19T01:36:31;12.90;99.90
48860;DHT22;34679;51.436;-2.518;2023-09-19T01:39:08;13.00;99.90
48860;DHT22;34679;51.436;-2.518;2023-09-19T01:42:01;12.90;99.90
48860;DHT22;34679;51.436;-2.518;2023-09-19T01:47:35;12.90;99.90
48860;DHT22;34679;51.436;-2.518;2023-09-19T01:52:42;12.90;99.90
48860;DHT22;34679;51.436;-2.518;2023-09-19T01:55:11;12.80;99.90
48860;DHT22;34679;51.436;-2.518;2023-09-19T01:57:48;12.80;99.90
48860;DHT22;34679;51.436;-2.518;2023-09-19T02:00:18;12.80;99.90
48860;DHT22;34679;51.436;-2.518;2023-09-19T02:02:47;12.80;99.90
48860;DHT22;34679;51.436;-2.518;2023-09-19T02:05:22;12.80;99.90
48860;DHT22;34679;51.436;-2.518;2023-09-19T02:07:49;12.80;99.90
48860;DHT22;34679;51.436;-2.518;2023-09-19T02:10:14;12.80;99.90
48860;DHT22;34679;51.436;-2.518;2023-09-19T02:12:40;12.80;99.90
48860;DHT22;34679;51.436;-2.518;2023-09-19T02:15:06;12.80;99.90
48860;DHT22;34679;51.436;-2.518;2023-09-19T02:17:32;12.90;99.90
48860;DHT22;34679;51.436;-2.518;2023-09-19T02:19:58;12.90;99.90
48860;DHT22;34679;51.436;-2.518;2023-09-19T02:22:26;12.90;99.90
48860;DHT22;34679;51.436;-2.518;2023-09-19T02:24:53;12.90;99.90
48860;DHT22;34679;51.436;-2.518;2023-09-19T02:27:19;12.90;99.90
48860;DHT22;34679;51.436;-2.518;2023-09-19T02:29:45;12.90;99.90
48860;DHT22;34679;51.436;-2.518;2023-09-19T02:32:11;12.90;99.90
48860;DHT22;34679;51.436;-2.518;2023-09-19T02:34:37;12.90;99.90
48860;DHT22;34679;51.436;-2.518;2023-09-19T02:37:07;13.00;99.90
48860;DHT22;34679;51.436;-2.518;2023-09-19T02:39:34;13.00;99.90
48860;DHT22;34679;51.436;-2.518;2023-09-19T02:42:00;13.10;99.90
48860;DHT22;34679;51.436;-2.518;2023-09-19T02:44:26;13.10;99.90
48860;DHT22;34679;51.436;-2.518;2023-09-19T02:46:52;13.10;99.90
48860;DHT22;34679;51.436;-2.518;2023-09-19T02:49:18;13.10;99.90
48860;DHT22;34679;51.436;-2.518;2023-09-19T02:51:44;13.20;99.90
48860;DHT22;34679;51.436;-2.518;2023-09-19T02:54:11;13.30;99.90
48860;DHT22;34679;51.436;-2.518;2023-09-19T02:56:37;13.20;99.90
48860;DHT22;34679;51.436;-2.518;2023-09-19T02:59:03;13.30;99.90
48860;DHT22;34679;51.436;-2.518;2023-09-19T03:01:29;13.30;99.90
48860;DHT22;34679;51.436;-2.518;2023-09-19T03:03:55;13.30;99.90
48860;DHT22;34679;51.436;-2.518;2023-09-19T03:06:21;13.30;99.90
48860;DHT22;34679;51.436;-2.518;2023-09-19T03:08:47;13.30;99.90
48860;DHT22;34679;51.436;-2.518;2023-09-19T03:11:15;13.30;99.90
48860;DHT22;34679;51.436;-2.518;2023-09-19T03:13:44;13.30;99.90
48860;DHT22;34679;51.436;-2.518;2023-09-19T03:16:11;13.40;99.90
48860;DHT22;34679;51.436;-2.518;2023-09-19T03:18:37;13.40;99.90
48860;DHT22;34679;51.436;-2.518;2023-09-19T03:21:03;13.40;99.90
48860;DHT22;34679;51.436;-2.518;2023-09-19T03:23:29;13.40;99.90
48860;DHT22;34679;51.436;-2.518;2023-09-19T03:25:55;13.50;99.90
48860;DHT22;34679;51.436;-2.518;2023-09-19T03:28:22;13.50;99.90
48860;DHT22;34679;51.436;-2.518;2023-09-19T03:31:02;13.50;99.90
48860;DHT22;34679;51.436;-2.518;2023-09-19T03:33:27;13.40;99.90
48860;DHT22;34679;51.436;-2.518;2023-09-19T03:35:54;13.40;99.90
48860;DHT22;34679;51.436;-2.518;2023-09-19T03:38:20;13.40;99.90
48860;DHT22;34679;51.436;-2.518;2023-09-19T03:40:47;13.40;99.90
48860;DHT22;34679;51.436;-2.518;2023-09-19T03:43:14;13.40;99.90
48860;DHT22;34679;51.436;-2.518;2023-09-19T03:45:40;13.50;99.90
48860;DHT22;34679;51.436;-2.518;2023-09-19T03:48:09;13.50;99.90
48860;DHT22;34679;51.436;-2.518;2023-09-19T03:50:36;13.50;99.90
48860;DHT22;34679;51.436;-2.518;2023-09-19T03:53:02;13.50;99.90
48860;DHT22;34679;51.436;-2.518;2023-09-19T03:55:28;13.50;99.90
48860;DHT22;34679;51.436;-2.518;2023-09-19T03:57:56;13.50;99.90
48860;DHT22;34679;51.436;-2.518;2023-09-19T04:00:22;13.50;99.90
48860;DHT22;34679;51.436;-2.518;2023-09-19T04:02:52;13.60;99.90
48860;DHT22;34679;51.436;-2.518;2023-09-19T04:05:18;13.60;99.90
48860;DHT22;34679;51.436;-2.518;2023-09-19T04:07:43;13.60;99.90
48860;DHT22;34679;51.436;-2.518;2023-09-19T04:10:10;13.60;99.90
48860;DHT22;34679;51.436;-2.518;2023-09-19T04:12:37;13.70;99.90
48860;DHT22;34679;51.436;-2.518;2023-09-19T04:15:05;13.70;99.90
48860;DHT22;34679;51.436;-2.518;2023-09-19T04:17:31;13.70;99.90
48860;DHT22;34679;51.436;-2.518;2023-09-19T04:19:58;13.70;99.90
48860;DHT22;34679;51.436;-2.518;2023-09-19T04:22:24;13.70;99.90
48860;DHT22;34679;51.436;-2.518;2023-09-19T04:24:50;13.80;99.90
48860;DHT22;34679;51.436;-2.518;2023-09-19T04:27:16;13.90;99.90
48860;DHT22;34679;51.436;-2.518;2023-09-19T04:29:41;13.90;99.90
48860;DHT22;34679;51.436;-2.518;2023-09-19T04:32:08;13.90;99.90
48860;DHT22;34679;51.436;-2.518;2023-09-19T04:34:35;13.90;99.90
48860;DHT22;34679;51.436;-2.518;2023-09-19T04:37:01;13.90;99.90
48860;DHT22;34679;51.436;-2.518;2023-09-19T04:39:27;13.90;99.90
48860;DHT22;34679;51.436;-2.518;2023-09-19T04:41:54;13.90;99.90
48860;DHT22;34679;51.436;-2.518;2023-09-19T04:44:20;13.80;99.90
48860;DHT22;34679;51.436;-2.518;2023-09-19T04:46:46;13.80;99.90
48860;DHT22;34679;51.436;-2.518;2023-09-19T04:49:13;13.80;99.90
48860;DHT22;34679;51.436;-2.518;2023-09-19T04:51:39;13.90;99.90
48860;DHT22;34679;51.436;-2.518;2023-09-19T04:54:06;13.90;99.90
48860;DHT22;34679;51.436;-2.518;2023-09-19T04:56:32;13.90;99.90
48860;DHT22;34679;51.436;-2.518;2023-09-19T04:58:59;13.90;99.90
48860;DHT22;34679;51.436;-2.518;2023-09-19T05:01:26;14.00;99.90
48860;DHT22;34679;51.436;-2.518;2023-09-19T05:03:52;14.00;99.90
48860;DHT22;34679;51.436;-2.518;2023-09-19T05:06:21;14.00;99.90
48860;DHT22;34679;51.436;-2.518;2023-09-19T05:08:50;14.00;99.90
48860;DHT22;34679;51.436;-2.518;2023-09-19T05:11:20;14.10;99.90
48860;DHT22;34679;51.436;-2.518;2023-09-19T05:13:50;14.10;99.90
48860;DHT22;34679;51.436;-2.518;2023-09-19T05:16:16;14.10;99.90
48860;DHT22;34679;51.436;-2.518;2023-09-19T05:18:42;14.20;99.90
48860;DHT22;34679;51.436;-2.518;2023-09-19T05:21:08;14.20;99.90
48860;DHT22;34679;51.436;-2.518;2023-09-19T05:23:34;14.10;99.90
48860;DHT22;34679;51.436;-2.518;2023-09-19T05:25:59;14.10;99.90
48860;DHT22;34679;51.436;-2.518;2023-09-19T05:28:26;14.10;99.90
48860;DHT22;34679;51.436;-2.518;2023-09-19T05:30:52;14.10;99.90
48860;DHT22;34679;51.436;-2.518;2023-09-19T05:33:19;14.10;99.90
48860;DHT22;34679;51.436;-2.518;2023-09-19T05:35:45;14.00;99.90
48860;DHT22;34679;51.436;-2.518;2023-09-19T05:38:13;14.00;99.90
48860;DHT22;34679;51.436;-2.518;2023-09-19T05:40:40;14.00;99.90
48860;DHT22;34679;51.436;-2.518;2023-09-19T05:43:10;14.10;99.90
48860;DHT22;34679;51.436;-2.518;2023-09-19T05:45:36;14.00;99.90
48860;DHT22;34679;51.436;-2.518;2023-09-19T05:48:13;14.10;99.90
48860;DHT22;34679;51.436;-2.518;2023-09-19T05:50:40;14.10;99.90
48860;DHT22;34679;51.436;-2.518;2023-09-19T05:53:06;14.20;99.90
48860;DHT22;34679;51.436;-2.518;2023-09-19T05:55:32;14.20;99.90
48860;DHT22;34679;51.436;-2.518;2023-09-19T05:57:58;14.20;99.90
48860;DHT22;34679;51.436;-2.518;2023-09-19T06:00:24;14.30;99.90
48860;DHT22;34679;51.436;-2.518;2023-09-19T06:02:52;14.30;99.90
48860;DHT22;34679;51.436;-2.518;2023-09-19T06:05:19;14.30;99.90
48860;DHT22;34679;51.436;-2.518;2023-09-19T06:07:46;14.40;99.90
48860;DHT22;34679;51.436;-2.518;2023-09-19T06:10:12;14.40;99.90
48860;DHT22;34679;51.436;-2.518;2023-09-19T06:12:42;14.40;99.90
48860;DHT22;34679;51.436;-2.518;2023-09-19T06:15:12;14.50;99.90
48860;DHT22;34679;51.436;-2.518;2023-09-19T06:17:42;14.60;99.90
48860;DHT22;34679;51.436;-2.518;2023-09-19T06:20:08;14.60;99.90
48860;DHT22;34679;51.436;-2.518;2023-09-19T06:22:44;14.60;99.90
48860;DHT22;34679;51.436;-2.518;2023-09-19T06:25:11;14.60;99.90
48860;DHT22;34679;51.436;-2.518;2023-09-19T06:27:41;14.60;99.90
48860;DHT22;34679;51.436;-2.518;2023-09-19T06:30:09;14.60;99.90
48860;DHT22;34679;51.436;-2.518;2023-09-19T06:32:35;14.70;99.90
48860;DHT22;34679;51.436;-2.518;2023-09-19T06:35:01;14.70;99.90
48860;DHT22;34679;51.436;-2.518;2023-09-19T06:37:29;14.70;99.90
48860;DHT22;34679;51.436;-2.518;2023-09-19T06:39:55;14.70;99.90
48860;DHT22;34679;51.436;-2.518;2023-09-19T06:42:22;14.70;99.90
48860;DHT22;34679;51.436;-2.518;2023-09-19T06:44:49;14.70;99.90
48860;DHT22;34679;51.436;-2.518;2023-09-19T06:47:14;14.80;99.90
48860;DHT22;34679;51.436;-2.518;2023-09-19T06:49:42;14.80;99.90
48860;DHT22;34679;51.436;-2.518;2023-09-19T06:52:11;14.90;99.90
48860;DHT22;34679;51.436;-2.518;2023-09-19T06:54:37;14.90;99.90
48860;DHT22;34679;51.436;-2.518;2023-09-19T06:57:03;15.00;99.90
48860;DHT22;34679;51.436;-2.518;2023-09-19T06:59:29;15.00;99.90
48860;DHT22;34679;51.436;-2.518;2023-09-19T07:01:55;15.00;99.90
48860;DHT22;34679;51.436;-2.518;2023-09-19T07:04:20;15.00;99.90
48860;DHT22;34679;51.436;-2.518;2023-09-19T07:06:50;15.10;99.90
48860;DHT22;34679;51.436;-2.518;2023-09-19T07:09:16;15.10;99.90
48860;DHT22;34679;51.436;-2.518;2023-09-19T07:11:42;15.00;99.90
48860;DHT22;34679;51.436;-2.518;2023-09-19T07:14:08;15.10;99.90
48860;DHT22;34679;51.436;-2.518;2023-09-19T07:16:37;15.20;99.90
48860;DHT22;34679;51.436;-2.518;2023-09-19T07:19:04;15.20;99.90
48860;DHT22;34679;51.436;-2.518;2023-09-19T07:21:30;15.20;99.90
48860;DHT22;34679;51.436;-2.518;2023-09-19T07:23:55;15.30;99.90
48860;DHT22;34679;51.436;-2.518;2023-09-19T07:26:21;15.40;99.90
48860;DHT22;34679;51.436;-2.518;2023-09-19T07:28:47;15.60;99.90
48860;DHT22;34679;51.436;-2.518;2023-09-19T07:31:12;15.80;99.90
48860;DHT22;34679;51.436;-2.518;2023-09-19T07:33:39;15.80;99.90
48860;DHT22;34679;51.436;-2.518;2023-09-19T07:36:06;15.80;99.90
48860;DHT22;34679;51.436;-2.518;2023-09-19T07:38:34;15.80;99.90
48860;DHT22;34679;51.436;-2.518;2023-09-19T07:41:01;16.00;99.90
48860;DHT22;34679;51.436;-2.518;2023-09-19T07:43:28;16.00;99.90
48860;DHT22;34679;51.436;-2.518;2023-09-19T07:45:53;16.10;99.90
48860;DHT22;34679;51.436;-2.518;2023-09-19T07:48:19;16.20;99.90
48860;DHT22;34679;51.436;-2.518;2023-09-19T07:50:45;16.30;99.90
48860;DHT22;34679;51.436;-2.518;2023-09-19T07:53:11;16.40;99.90
48860;DHT22;34679;51.436;-2.518;2023-09-19T07:55:39;16.40;99.90
48860;DHT22;34679;51.436;-2.518;2023-09-19T07:58:07;16.50;99.90
48860;DHT22;34679;51.436;-2.518;2023-09-19T08:00:32;16.50;99.90
48860;DHT22;34679;51.436;-2.518;2023-09-19T08:03:00;16.40;99.90
48860;DHT22;34679;51.436;-2.518;2023-09-19T08:05:26;16.30;99.90
48860;DHT22;34679;51.436;-2.518;2023-09-19T08:07:52;16.10;99.90
48860;DHT22;34679;51.436;-2.518;2023-09-19T08:10:19;16.10;99.90
48860;DHT22;34679;51.436;-2.518;2023-09-19T08:12:47;16.20;99.90
48860;DHT22;34679;51.436;-2.518;2023-09-19T08:15:19;16.20;99.90
48860;DHT22;34679;51.436;-2.518;2023-09-19T08:17:46;16.40;99.90
48860;DHT22;34679;51.436;-2.518;2023-09-19T08:20:12;16.60;99.90
48860;DHT22;34679;51.436;-2.518;2023-09-19T08:22:48;17.00;99.90
48860;DHT22;34679;51.436;-2.518;2023-09-19T08:25:15;17.40;99.90
48860;DHT22;34679;51.436;-2.518;2023-09-19T08:27:45;17.50;99.90
48860;DHT22;34679;51.436;-2.518;2023-09-19T08:30:15;17.40;99.90
48860;DHT22;34679;51.436;-2.518;2023-09-19T08:32:40;17.20;99.90
48860;DHT22;34679;51.436;-2.518;2023-09-19T08:35:08;17.00;99.90
48860;DHT22;34679;51.436;-2.518;2023-09-19T08:37:35;16.90;99.90
48860;DHT22;34679;51.436;-2.518;2023-09-19T08:40:00;16.80;99.90
48860;DHT22;34679;51.436;-2.518;2023-09-19T08:42:26;16.70;99.90
48860;DHT22;34679;51.436;-2.518;2023-09-19T08:44:52;16.80;99.90
48860;DHT22;34679;51.436;-2.518;2023-09-19T08:47:45;16.60;99.90
48860;DHT22;34679;51.436;-2.518;2023-09-19T08:50:26;16.40;99.90
48860;DHT22;34679;51.436;-2.518;2023-09-19T08:52:55;16.30;99.90
48860;DHT22;34679;51.436;-2.518;2023-09-19T08:55:26;16.20;99.90
48860;DHT22;34679;51.436;-2.518;2023-09-19T08:58:00;16.10;99.90
48860;DHT22;34679;51.436;-2.518;2023-09-19T09:00:27;16.00;99.90
48860;DHT22;34679;51.436;-2.518;2023-09-19T09:02:55;16.10;99.90
48860;DHT22;34679;51.436;-2.518;2023-09-19T09:05:23;16.30;99.90
48860;DHT22;34679;51.436;-2.518;2023-09-19T09:07:52;16.50;99.90
48860;DHT22;34679;51.436;-2.518;2023-09-19T09:10:22;16.70;99.90
48860;DHT22;34679;51.436;-2.518;2023-09-19T09:12:58;16.90;99.90
48860;DHT22;34679;51.436;-2.518;2023-09-19T09:15:24;16.90;99.90
48860;DHT22;34679;51.436;-2.518;2023-09-19T09:17:51;17.00;99.90
48860;DHT22;34679;51.436;-2.518;2023-09-19T09:20:20;17.00;99.90
48860;DHT22;34679;51.436;-2.518;2023-09-19T09:22:53;17.00;99.90
48860;DHT22;34679;51.436;-2.518;2023-09-19T09:25:20;17.10;99.90
48860;DHT22;34679;51.436;-2.518;2023-09-19T09:27:59;17.20;99.90
48860;DHT22;34679;51.436;-2.518;2023-09-19T09:30:34;17.30;99.90
48860;DHT22;34679;51.436;-2.518;2023-09-19T09:33:18;17.30;99.90
48860;DHT22;34679;51.436;-2.518;2023-09-19T09:35:55;17.50;99.90
48860;DHT22;34679;51.436;-2.518;2023-09-19T09:38:27;17.50;99.90
48860;DHT22;34679;51.436;-2.518;2023-09-19T09:40:55;17.50;99.90
48860;DHT22;34679;51.436;-2.518;2023-09-19T09:43:40;17.40;99.90
48860;DHT22;34679;51.436;-2.518;2023-09-19T09:46:16;17.40;99.90
48860;DHT22;34679;51.436;-2.518;2023-09-19T09:51:33;17.50;99.90
48860;DHT22;34679;51.436;-2.518;2023-09-19T09:54:13;17.80;99.90
48860;DHT22;34679;51.436;-2.518;2023-09-19T09:59:47;17.90;99.90
48860;DHT22;34679;51.436;-2.518;2023-09-19T10:02:18;17.80;99.90
48860;DHT22;34679;51.436;-2.518;2023-09-19T10:04:52;17.80;99.90
48860;DHT22;34679;51.436;-2.518;2023-09-19T10:07:39;17.80;99.90
48860;DHT22;34679;51.436;-2.518;2023-09-19T10:10:15;17.80;99.90
48860;DHT22;34679;51.436;-2.518;2023-09-19T10:12:47;17.70;99.90
48860;DHT22;34679;51.436;-2.518;2023-09-19T10:15:18;17.50;99.90
48860;DHT22;34679;51.436;-2.518;2023-09-19T10:17:46;17.40;99.90
48860;DHT22;34679;51.436;-2.518;2023-09-19T10:20:17;17.30;99.90
48860;DHT22;34679;51.436;-2.518;2023-09-19T10:22:58;17.30;99.90
48860;DHT22;34679;51.436;-2.518;2023-09-19T10:25:26;17.10;99.90
48860;DHT22;34679;51.436;-2.518;2023-09-19T10:27:54;17.00;99.90
48860;DHT22;34679;51.436;-2.518;2023-09-19T10:30:23;17.00;99.90
48860;DHT22;34679;51.436;-2.518;2023-09-19T10:33:03;17.00;99.90
48860;DHT22;34679;51.436;-2.518;2023-09-19T10:35:32;17.00;99.90
48860;DHT22;34679;51.436;-2.518;2023-09-19T10:38:01;17.00;99.90
48860;DHT22;34679;51.436;-2.518;2023-09-19T10:40:29;17.00;99.90
48860;DHT22;34679;51.436;-2.518;2023-09-19T10:43:03;17.10;99.90
48860;DHT22;34679;51.436;-2.518;2023-09-19T10:45:35;17.10;99.90
48860;DHT22;34679;51.436;-2.518;2023-09-19T10:48:04;17.10;99.90
48860;DHT22;34679;51.436;-2.518;2023-09-19T10:50:33;17.10;99.90
48860;DHT22;34679;51.436;-2.518;2023-09-19T10:53:04;17.20;99.90
48860;DHT22;34679;51.436;-2.518;2023-09-19T10:55:33;17.20;99.90
48860;DHT22;34679;51.436;-2.518;2023-09-19T10:58:01;17.20;99.90
48860;DHT22;34679;51.436;-2.518;2023-09-19T11:00:30;17.40;99.90
48860;DHT22;34679;51.436;-2.518;2023-09-19T11:05:39;17.50;99.90
48860;DHT22;34679;51.436;-2.518;2023-09-19T11:08:07;17.60;99.90
48860;DHT22;34679;51.436;-2.518;2023-09-19T11:10:51;17.60;99.90
48860;DHT22;34679;51.436;-2.518;2023-09-19T11:13:28;17.80;99.90
48860;DHT22;34679;51.436;-2.518;2023-09-19T11:26:48;17.70;99.90
48860;DHT22;34679;51.436;-2.518;2023-09-19T11:29:29;17.60;99.90
48860;DHT22;34679;51.436;-2.518;2023-09-19T11:31:57;17.50;99.90
48860;DHT22;34679;51.436;-2.518;2023-09-19T11:34:44;17.60;99.90
48860;DHT22;34679;51.436;-2.518;2023-09-19T11:40:06;17.70;99.90
48860;DHT22;34679;51.436;-2.518;2023-09-19T11:42:46;17.80;99.90
48860;DHT22;34679;51.436;-2.518;2023-09-19T11:48:18;17.80;99.90
48860;DHT22;34679;51.436;-2.518;2023-09-19T11:50:45;17.90;99.90
48860;DHT22;34679;51.436;-2.518;2023-09-19T11:53:12;17.80;99.90
48860;DHT22;34679;51.436;-2.518;2023-09-19T11:55:39;17.90;99.90
48860;DHT22;34679;51.436;-2.518;2023-09-19T11:58:09;17.90;99.90
48860;DHT22;34679;51.436;-2.518;2023-09-19T12:00:38;18.00;99.90
48860;DHT22;34679;51.436;-2.518;2023-09-19T12:03:10;17.90;99.90
48860;DHT22;34679;51.436;-2.518;2023-09-19T12:05:37;18.00;99.90
48860;DHT22;34679;51.436;-2.518;2023-09-19T12:08:04;18.00;99.90
48860;DHT22;34679;51.436;-2.518;2023-09-19T12:10:33;18.10;99.90
48860;DHT22;34679;51.436;-2.518;2023-09-19T12:12:59;18.00;99.90
48860;DHT22;34679;51.436;-2.518;2023-09-19T12:15:26;18.10;99.90
48860;DHT22;34679;51.436;-2.518;2023-09-19T12:17:54;18.20;99.90
48860;DHT22;34679;51.436;-2.518;2023-09-19T12:20:20;18.20;99.90
48860;DHT22;34679;51.436;-2.518;2023-09-19T12:22:47;18.20;99.90
48860;DHT22;34679;51.436;-2.518;2023-09-19T12:25:14;18.30;99.90
48860;DHT22;34679;51.436;-2.518;2023-09-19T12:27:48;18.30;99.90
48860;DHT22;34679;51.436;-2.518;2023-09-19T12:30:15;18.30;99.90
48860;DHT22;34679;51.436;-2.518;2023-09-19T12:32:43;18.30;99.90
48860;DHT22;34679;51.436;-2.518;2023-09-19T12:35:10;18.40;99.90
48860;DHT22;34679;51.436;-2.518;2023-09-19T12:37:52;18.30;99.90
48860;DHT22;34679;51.436;-2.518;2023-09-19T12:40:21;18.20;99.90
48860;DHT22;34679;51.436;-2.518;2023-09-19T12:42:57;18.20;99.90
48860;DHT22;34679;51.436;-2.518;2023-09-19T12:45:33;18.30;99.90
48860;DHT22;34679;51.436;-2.518;2023-09-19T12:53:36;18.50;99.90
48860;DHT22;34679;51.436;-2.518;2023-09-19T12:56:06;18.50;99.90
48860;DHT22;34679;51.436;-2.518;2023-09-19T12:58:35;18.50;99.90
48860;DHT22;34679;51.436;-2.518;2023-09-19T13:01:16;18.50;99.90
48860;DHT22;34679;51.436;-2.518;2023-09-19T13:03:42;18.40;99.90
48860;DHT22;34679;51.436;-2.518;2023-09-19T13:06:07;18.40;99.90
48860;DHT22;34679;51.436;-2.518;2023-09-19T13:08:37;18.20;99.90
48860;DHT22;34679;51.436;-2.518;2023-09-19T13:16:14;18.30;99.90
48860;DHT22;34679;51.436;-2.518;2023-09-19T13:18:49;18.40;99.90
48860;DHT22;34679;51.436;-2.518;2023-09-19T13:21:32;18.40;99.90
48860;DHT22;34679;51.436;-2.518;2023-09-19T13:24:22;18.50;99.90
48860;DHT22;34679;51.436;-2.518;2023-09-19T13:26:51;18.50;99.90
48860;DHT22;34679;51.436;-2.518;2023-09-19T13:29:17;18.50;99.90
48860;DHT22;34679;51.436;-2.518;2023-09-19T13:31:51;18.50;99.90
48860;DHT22;34679;51.436;-2.518;2023-09-19T13:34:19;18.70;99.90
48860;DHT22;34679;51.436;-2.518;2023-09-19T13:36:45;18.80;99.90
48860;DHT22;34679;51.436;-2.518;2023-09-19T13:39:17;19.00;99.90
48860;DHT22;34679;51.436;-2.518;2023-09-19T13:41:49;19.10;99.90
48860;DHT22;34679;51.436;-2.518;2023-09-19T13:44:15;19.30;99.90
48860;DHT22;34679;51.436;-2.518;2023-09-19T13:46:42;19.30;99.90
48860;DHT22;34679;51.436;-2.518;2023-09-19T13:49:11;19.50;99.90
48860;DHT22;34679;51.436;-2.518;2023-09-19T13:51:37;19.70;99.90
48860;DHT22;34679;51.436;-2.518;2023-09-19T13:54:03;19.80;99.90
48860;DHT22;34679;51.436;-2.518;2023-09-19T13:56:28;19.90;99.90
48860;DHT22;34679;51.436;-2.518;2023-09-19T13:58:56;19.90;99.90
48860;DHT22;34679;51.436;-2.518;2023-09-19T14:01:22;19.90;99.90
48860;DHT22;34679;51.436;-2.518;2023-09-19T14:03:47;19.90;99.90
48860;DHT22;34679;51.436;-2.518;2023-09-19T14:06:15;19.80;99.90
48860;DHT22;34679;51.436;-2.518;2023-09-19T14:08:41;19.90;99.90
48860;DHT22;34679;51.436;-2.518;2023-09-19T14:11:08;19.80;99.90
48860;DHT22;34679;51.436;-2.518;2023-09-19T14:13:34;19.70;99.90
48860;DHT22;34679;51.436;-2.518;2023-09-19T14:16:09;19.80;99.90
48860;DHT22;34679;51.436;-2.518;2023-09-19T14:18:35;19.80;99.90
48860;DHT22;34679;51.436;-2.518;2023-09-19T14:21:05;19.90;99.90
48860;DHT22;34679;51.436;-2.518;2023-09-19T14:23:37;19.90;99.90
48860;DHT22;34679;51.436;-2.518;2023-09-19T14:26:04;19.90;99.90
48860;DHT22;34679;51.436;-2.518;2023-09-19T14:28:31;19.70;99.90
48860;DHT22;34679;51.436;-2.518;2023-09-19T14:31:06;19.70;99.90
48860;DHT22;34679;51.436;-2.518;2023-09-19T14:33:32;19.70;99.90
48860;DHT22;34679;51.436;-2.518;2023-09-19T14:35:58;19.60;99.90
48860;DHT22;34679;51.436;-2.518;2023-09-19T14:38:24;19.70;99.90
48860;DHT22;34679;51.436;-2.518;2023-09-19T14:41:02;19.60;99.90
48860;DHT22;34679;51.436;-2.518;2023-09-19T14:43:28;19.70;99.90
48860;DHT22;34679;51.436;-2.518;2023-09-19T14:46:04;19.80;99.90
48860;DHT22;34679;51.436;-2.518;2023-09-19T14:48:30;20.00;99.90
48860;DHT22;34679;51.436;-2.518;2023-09-19T14:51:05;20.00;99.90
48860;DHT22;34679;51.436;-2.518;2023-09-19T14:53:32;19.90;99.90
48860;DHT22;34679;51.436;-2.518;2023-09-19T14:56:01;19.70;99.90
48860;DHT22;34679;51.436;-2.518;2023-09-19T14:58:29;19.60;99.90
48860;DHT22;34679;51.436;-2.518;2023-09-19T15:01:15;19.50;99.90
48860;DHT22;34679;51.436;-2.518;2023-09-19T15:03:42;19.70;99.90
48860;DHT22;34679;51.436;-2.518;2023-09-19T15:06:11;19.70;99.90
48860;DHT22;34679;51.436;-2.518;2023-09-19T15:08:43;19.80;99.90
48860;DHT22;34679;51.436;-2.518;2023-09-19T15:11:13;19.70;99.90
48860;DHT22;34679;51.436;-2.518;2023-09-19T15:13:41;19.70;99.90
48860;DHT22;34679;51.436;-2.518;2023-09-19T15:16:08;19.80;99.90
48860;DHT22;34679;51.436;-2.518;2023-09-19T15:18:38;19.90;99.90
48860;DHT22;34679;51.436;-2.518;2023-09-19T15:21:05;19.80;99.90
48860;DHT22;34679;51.436;-2.518;2023-09-19T15:23:33;20.00;99.90
48860;DHT22;34679;51.436;-2.518;2023-09-19T15:26:00;20.00;99.90
48860;DHT22;34679;51.436;-2.518;2023-09-19T15:28:27;20.20;99.90
48860;DHT22;34679;51.436;-2.518;2023-09-19T15:31:01;20.10;99.90
48860;DHT22;34679;51.436;-2.518;2023-09-19T15:33:27;20.00;99.90
48860;DHT22;34679;51.436;-2.518;2023-09-19T15:36:14;20.00;99.90
48860;DHT22;34679;51.436;-2.518;2023-09-19T15:39:03;19.70;99.90
48860;DHT22;34679;51.436;-2.518;2023-09-19T15:41:40;19.60;99.90
48860;DHT22;34679;51.436;-2.518;2023-09-19T15:44:15;19.40;99.90
48860;DHT22;34679;51.436;-2.518;2023-09-19T15:46:41;19.20;99.90
48860;DHT22;34679;51.436;-2.518;2023-09-19T15:49:08;19.10;99.90
48860;DHT22;34679;51.436;-2.518;2023-09-19T15:51:34;19.20;99.90
48860;DHT22;34679;51.436;-2.518;2023-09-19T15:54:01;19.10;99.90
48860;DHT22;34679;51.436;-2.518;2023-09-19T15:56:33;18.90;99.90
48860;DHT22;34679;51.436;-2.518;2023-09-19T15:59:00;18.70;99.90
48860;DHT22;34679;51.436;-2.518;2023-09-19T16:01:26;18.60;99.90
48860;DHT22;34679;51.436;-2.518;2023-09-19T16:03:54;18.60;99.90
48860;DHT22;34679;51.436;-2.518;2023-09-19T16:06:25;18.60;99.90
48860;DHT22;34679;51.436;-2.518;2023-09-19T16:08:53;18.60;99.90
48860;DHT22;34679;51.436;-2.518;2023-09-19T16:11:19;18.60;99.90
48860;DHT22;34679;51.436;-2.518;2023-09-19T16:13:50;18.60;99.90
48860;DHT22;34679;51.436;-2.518;2023-09-19T16:16:18;18.60;99.90
48860;DHT22;34679;51.436;-2.518;2023-09-19T16:18:49;18.60;99.90